Time;durP1;ratioP1;P1;durP2;ratioP2;P2;SDS_P1;SDS_P2;PMS_P1;PMS_P2;Temp;Humidity;BMP_temperature;BMP_pressure;BME280_temperature;BME280_humidity;BME280_pressure;Samples;Min_cycle;Max_cycle;Signal;HPM_P1;HPM_P2
2022/07/10 00:00:05;;;;;;;1.55;1.38;;;;;;;;;;5009625;28;20037;-52
2022/07/10 00:02:31;;;;;;;3.63;1.38;;;;;;;;;;5015865;28;20375;-46
2022/07/10 00:04:57;;;;;;;2.33;1.50;;;;;;;;;;5023045;28;20030;-50
2022/07/10 00:07:23;;;;;;;2.42;1.52;;;;;;;;;;5007639;28;20034;-51
2022/07/10 00:09:49;;;;;;;2.42;1.50;;;;;;;;;;5016969;28;20097;-51
2022/07/10 00:12:15;;;;;;;1.90;1.45;;;;;;;;;;5008874;28;20021;-51
2022/07/10 00:14:41;;;;;;;2.20;1.60;;;;;;;;;;5011412;28;20490;-52
2022/07/10 00:17:07;;;;;;;1.90;1.50;;;;;;;;;;5009044;28;20105;-50
2022/07/10 00:19:33;;;;;;;2.08;1.52;;;;;;;;;;5017173;28;20459;-48
2022/07/10 00:21:59;;;;;;;1.83;1.30;;;;;;;;;;5014671;28;20022;-50
2022/07/10 00:24:25;;;;;;;3.33;1.23;;;;;;;;;;5006340;28;20068;-52
2022/07/10 00:26:51;;;;;;;1.73;1.35;;;;;;;;;;5010897;28;20084;-51
2022/07/10 00:29:17;;;;;;;4.07;1.40;;;;;;;;;;5014006;28;20026;-53
2022/07/10 00:31:43;;;;;;;1.77;1.35;;;;;;;;;;5017731;28;20026;-52
2022/07/10 00:34:09;;;;;;;2.03;1.33;;;;;;;;;;5012680;28;20040;-50
2022/07/10 00:36:35;;;;;;;2.08;1.40;;;;;;;;;;5012166;28;20022;-46
2022/07/10 00:39:01;;;;;;;1.88;1.58;;;;;;;;;;5005236;28;20064;-50
2022/07/10 00:41:27;;;;;;;1.60;1.48;;;;;;;;;;5018962;28;20022;-53
2022/07/10 00:43:54;;;;;;;1.92;1.27;;;;;;;;;;5020214;28;20029;-54
2022/07/10 00:46:21;;;;;;;1.80;1.33;;;;;;;;;;5014539;28;20040;-50
2022/07/10 00:48:47;;;;;;;1.70;1.40;;;;;;;;;;5018123;28;20112;-50
2022/07/10 00:51:14;;;;;;;3.00;1.52;;;;;;;;;;5016579;28;20108;-50
2022/07/10 00:53:40;;;;;;;1.90;1.63;;;;;;;;;;5020784;28;20407;-53
2022/07/10 00:56:07;;;;;;;1.27;1.00;;;;;;;;;;5011565;28;20162;-50
2022/07/10 00:58:33;;;;;;;1.95;0.98;;;;;;;;;;5018178;28;20022;-50
2022/07/10 01:01:00;;;;;;;1.98;1.40;;;;;;;;;;5016070;28;20034;-50
2022/07/10 01:03:26;;;;;;;1.83;1.45;;;;;;;;;;5016231;28;20112;-52
2022/07/10 01:05:52;;;;;;;1.77;1.15;;;;;;;;;;5015825;28;20088;-50
2022/07/10 01:08:18;;;;;;;2.13;1.38;;;;;;;;;;5018688;28;20026;-51
2022/07/10 01:10:44;;;;;;;3.50;1.35;;;;;;;;;;5020829;28;20460;-48
2022/07/10 01:13:10;;;;;;;1.95;1.60;;;;;;;;;;5010198;28;20037;-50
2022/07/10 01:15:37;;;;;;;2.13;1.42;;;;;;;;;;5013608;28;20026;-46
2022/07/10 01:18:03;;;;;;;1.65;1.23;;;;;;;;;;5008880;28;20109;-51
2022/07/10 01:20:33;;;;;;;1.52;1.42;;;;;;;;;;5022588;28;20021;-53
2022/07/10 01:22:59;;;;;;;1.35;1.17;;;;;;;;;;5010802;28;20083;-50
2022/07/10 01:25:25;;;;;;;1.88;1.45;;;;;;;;;;5012646;28;20502;-51
2022/07/10 01:27:51;;;;;;;1.83;1.20;;;;;;;;;;5013570;28;20029;-51
2022/07/10 01:30:19;;;;;;;1.75;1.40;;;;;;;;;;5011314;28;20121;-48
2022/07/10 01:32:45;;;;;;;1.55;1.13;;;;;;;;;;5013562;28;20026;-53
2022/07/10 01:35:11;;;;;;;1.58;1.17;;;;;;;;;;5012981;28;20539;-53
2022/07/10 01:37:38;;;;;;;1.98;1.13;;;;;;;;;;5012587;28;20356;-49
2022/07/10 01:40:04;;;;;;;1.35;1.20;;;;;;;;;;5014407;28;20483;-50
2022/07/10 01:42:30;;;;;;;2.03;1.45;;;;;;;;;;5014062;28;20025;-49
2022/07/10 01:44:56;;;;;;;1.50;1.38;;;;;;;;;;5008789;28;20044;-50
2022/07/10 01:47:27;;;;;;;1.88;1.10;;;;;;;;;;5012898;28;20030;-51
2022/07/10 01:49:53;;;;;;;1.70;1.38;;;;;;;;;;5019449;28;20085;-50
2022/07/10 01:52:23;;;;;;;2.20;1.42;;;;;;;;;;5019854;28;20049;-53
2022/07/10 01:54:49;;;;;;;2.55;1.27;;;;;;;;;;5014046;28;20104;-50
2022/07/10 01:57:15;;;;;;;1.48;1.30;;;;;;;;;;5016979;28;20026;-52
2022/07/10 01:59:41;;;;;;;1.70;1.35;;;;;;;;;;5012836;28;20054;-49
2022/07/10 02:02:08;;;;;;;1.60;1.42;;;;;;;;;;5017725;28;20037;-50
2022/07/10 02:04:40;;;;;;;1.52;1.10;;;;;;;;;;5020881;28;20112;-52
2022/07/10 02:07:07;;;;;;;1.40;1.20;;;;;;;;;;5020157;28;20402;-48
2022/07/10 02:09:33;;;;;;;1.63;1.42;;;;;;;;;;5019820;28;20022;-49
2022/07/10 02:11:59;;;;;;;1.85;1.20;;;;;;;;;;5014974;28;20022;-47
2022/07/10 02:14:25;;;;;;;2.45;1.60;;;;;;;;;;5012961;28;20065;-50
2022/07/10 02:16:51;;;;;;;1.23;1.13;;;;;;;;;;5015581;28;20053;-53
2022/07/10 02:19:17;;;;;;;2.85;1.40;;;;;;;;;;5012241;28;20026;-50
2022/07/10 02:21:43;;;;;;;1.63;1.20;;;;;;;;;;5019800;28;20101;-50
2022/07/10 02:24:09;;;;;;;7.57;2.53;;;;;;;;;;5014111;28;20053;-50
2022/07/10 02:26:35;;;;;;;1.60;1.33;;;;;;;;;;5013115;28;20036;-50
2022/07/10 02:29:01;;;;;;;2.00;1.10;;;;;;;;;;5020022;28;20021;-53
2022/07/10 02:31:27;;;;;;;2.97;1.42;;;;;;;;;;5016025;28;20475;-52
2022/07/10 02:33:53;;;;;;;2.10;1.20;;;;;;;;;;5009661;28;20028;-50
2022/07/10 02:36:19;;;;;;;1.58;1.30;;;;;;;;;;5007668;28;20099;-51
2022/07/10 02:38:45;;;;;;;1.50;1.20;;;;;;;;;;5018524;28;20101;-50
2022/07/10 02:41:11;;;;;;;1.63;1.30;;;;;;;;;;5012921;28;20030;-51
2022/07/10 02:43:37;;;;;;;1.45;1.13;;;;;;;;;;5012135;28;20036;-54
2022/07/10 02:46:03;;;;;;;2.47;1.40;;;;;;;;;;5007178;28;20096;-52
2022/07/10 02:48:29;;;;;;;2.65;1.23;;;;;;;;;;5016450;28;20025;-53
2022/07/10 02:50:55;;;;;;;1.42;1.20;;;;;;;;;;5019234;28;20056;-51
2022/07/10 02:53:21;;;;;;;1.88;1.45;;;;;;;;;;5011006;28;20053;-52
2022/07/10 02:55:47;;;;;;;2.10;1.20;;;;;;;;;;5012100;28;20030;-54
2022/07/10 02:58:15;;;;;;;2.80;1.42;;;;;;;;;;5017342;28;20052;-54
2022/07/10 03:00:41;;;;;;;1.83;1.38;;;;;;;;;;5012216;28;20061;-48
2022/07/10 03:03:07;;;;;;;1.80;1.30;;;;;;;;;;5010542;28;20022;-54
2022/07/10 03:05:33;;;;;;;1.83;1.30;;;;;;;;;;5013289;28;20026;-50
2022/07/10 03:07:59;;;;;;;1.83;1.35;;;;;;;;;;5018495;28;20033;-50
2022/07/10 03:10:25;;;;;;;2.17;1.23;;;;;;;;;;5010610;28;20112;-50
2022/07/10 03:12:51;;;;;;;1.30;1.17;;;;;;;;;;5018125;28;20514;-50
2022/07/10 03:15:17;;;;;;;1.92;1.45;;;;;;;;;;5015568;28;20041;-50
2022/07/10 03:17:44;;;;;;;1.73;1.27;;;;;;;;;;5011067;28;20037;-46
2022/07/10 03:20:10;;;;;;;1.30;1.17;;;;;;;;;;5012581;28;20053;-50
2022/07/10 03:22:36;;;;;;;2.47;1.20;;;;;;;;;;5012224;28;20053;-51
2022/07/10 03:25:03;;;;;;;2.10;1.50;;;;;;;;;;5015473;28;20659;-49
2022/07/10 03:27:29;;;;;;;1.73;1.52;;;;;;;;;;5012098;28;20029;-50
2022/07/10 03:29:55;;;;;;;1.95;1.60;;;;;;;;;;5013027;28;20501;-52
2022/07/10 03:32:21;;;;;;;2.92;1.55;;;;;;;;;;5012637;28;20029;-51
2022/07/10 03:34:47;;;;;;;1.98;1.33;;;;;;;;;;5011115;28;20026;-56
2022/07/10 03:37:13;;;;;;;1.30;1.10;;;;;;;;;;5013789;28;20050;-51
2022/07/10 03:39:39;;;;;;;1.95;1.20;;;;;;;;;;5008132;28;20034;-54
2022/07/10 03:42:06;;;;;;;1.40;1.30;;;;;;;;;;5016437;28;20041;-47
2022/07/10 03:44:32;;;;;;;1.50;1.13;;;;;;;;;;5017878;28;20029;-55
2022/07/10 03:46:58;;;;;;;1.60;1.40;;;;;;;;;;5011867;28;20034;-56
2022/07/10 03:49:24;;;;;;;3.50;1.90;;;;;;;;;;5011338;28;20621;-57
2022/07/10 03:51:50;;;;;;;2.08;1.30;;;;;;;;;;5011667;28;20045;-53
2022/07/10 03:54:16;;;;;;;2.90;1.30;;;;;;;;;;5012286;28;20034;-50
2022/07/10 03:59:41;;;;;;;1.40;1.23;;;;;;;;;;4965168;28;20030;-53
2022/07/10 04:02:07;;;;;;;1.60;1.23;;;;;;;;;;5011455;28;20018;-52
2022/07/10 04:04:33;;;;;;;1.17;1.08;;;;;;;;;;5015955;28;20487;-51
2022/07/10 04:06:59;;;;;;;1.40;1.17;;;;;;;;;;5021942;28;20029;-50
2022/07/10 04:09:25;;;;;;;1.60;1.35;;;;;;;;;;5011047;28;20034;-54
2022/07/10 04:11:51;;;;;;;1.50;1.23;;;;;;;;;;5014390;28;20425;-51
2022/07/10 04:14:17;;;;;;;1.48;1.30;;;;;;;;;;5006607;28;20068;-50
2022/07/10 04:16:43;;;;;;;2.30;1.63;;;;;;;;;;5007605;28;20088;-50
2022/07/10 04:19:09;;;;;;;1.90;1.00;;;;;;;;;;5023515;28;20029;-52
2022/07/10 04:21:36;;;;;;;3.03;1.27;;;;;;;;;;5015984;28;20487;-53
2022/07/10 04:24:03;;;;;;;1.95;1.30;;;;;;;;;;5020328;28;20038;-50
2022/07/10 04:26:29;;;;;;;1.65;1.17;;;;;;;;;;5019300;28;20033;-50
2022/07/10 04:28:55;;;;;;;1.42;1.27;;;;;;;;;;5024999;28;20030;-53
2022/07/10 04:31:21;;;;;;;3.35;1.67;;;;;;;;;;5014463;28;20089;-50
2022/07/10 04:33:47;;;;;;;2.05;1.30;;;;;;;;;;5013911;28;20030;-47
2022/07/10 04:36:13;;;;;;;1.40;1.30;;;;;;;;;;5020300;28;20030;-51
2022/07/10 04:38:39;;;;;;;2.28;1.30;;;;;;;;;;5015151;28;20026;-54
2022/07/10 04:41:05;;;;;;;2.42;1.40;;;;;;;;;;5018015;28;20083;-52
2022/07/10 04:43:31;;;;;;;2.00;1.52;;;;;;;;;;5014107;28;20073;-51
2022/07/10 04:45:57;;;;;;;3.05;1.45;;;;;;;;;;5012231;28;20080;-50
2022/07/10 04:48:23;;;;;;;3.20;1.33;;;;;;;;;;5022626;28;20080;-49
2022/07/10 04:50:49;;;;;;;1.40;1.30;;;;;;;;;;5020420;28;20042;-46
2022/07/10 04:53:15;;;;;;;1.40;1.25;;;;;;;;;;5014424;28;20056;-50
2022/07/10 04:55:41;;;;;;;1.33;1.00;;;;;;;;;;5016521;28;20037;-50
2022/07/10 04:58:07;;;;;;;1.65;1.20;;;;;;;;;;5020044;28;20033;-52
2022/07/10 05:00:33;;;;;;;2.10;1.13;;;;;;;;;;5015007;28;20030;-52
2022/07/10 05:02:59;;;;;;;2.17;1.38;;;;;;;;;;5014435;28;20372;-51
2022/07/10 05:05:25;;;;;;;2.30;1.13;;;;;;;;;;5016451;28;20160;-54
2022/07/10 05:07:51;;;;;;;1.70;1.23;;;;;;;;;;5010103;28;20105;-48
2022/07/10 05:10:17;;;;;;;1.95;1.17;;;;;;;;;;5020770;28;20522;-49
2022/07/10 05:12:43;;;;;;;1.92;1.15;;;;;;;;;;5016578;28;20014;-51
2022/07/10 05:15:09;;;;;;;1.95;1.75;;;;;;;;;;5015915;28;20029;-51
2022/07/10 05:17:35;;;;;;;1.45;1.27;;;;;;;;;;5012594;28;20029;-53
2022/07/10 05:20:01;;;;;;;1.55;1.17;;;;;;;;;;5018266;28;20104;-50
2022/07/10 05:22:30;;;;;;;1.58;1.10;;;;;;;;;;5011944;28;20038;-53
2022/07/10 05:24:56;;;;;;;1.42;1.10;;;;;;;;;;5014844;28;20034;-50
2022/07/10 05:27:22;;;;;;;2.38;1.20;;;;;;;;;;5021120;28;20076;-50
2022/07/10 05:29:48;;;;;;;1.85;1.45;;;;;;;;;;5020122;28;20044;-51
2022/07/10 05:32:14;;;;;;;1.55;1.10;;;;;;;;;;5015444;28;20105;-52
2022/07/10 05:34:40;;;;;;;1.98;1.13;;;;;;;;;;5024302;28;20038;-53
2022/07/10 05:37:06;;;;;;;2.67;1.25;;;;;;;;;;5016116;28;20037;-51
2022/07/10 05:39:33;;;;;;;2.00;1.15;;;;;;;;;;5007164;28;20030;-52
2022/07/10 05:41:59;;;;;;;1.92;1.77;;;;;;;;;;5028261;28;20492;-51
2022/07/10 05:44:25;;;;;;;2.10;1.40;;;;;;;;;;5017314;28;20109;-51
2022/07/10 05:46:51;;;;;;;1.42;1.27;;;;;;;;;;5010052;28;20034;-47
2022/07/10 05:49:18;;;;;;;2.05;1.23;;;;;;;;;;5024457;28;20040;-52
2022/07/10 05:51:44;;;;;;;1.90;1.23;;;;;;;;;;5013910;28;20458;-53
2022/07/10 05:54:10;;;;;;;1.50;0.90;;;;;;;;;;5017431;28;20057;-51
2022/07/10 05:56:36;;;;;;;1.23;1.00;;;;;;;;;;5013820;28;20032;-50
2022/07/10 05:59:02;;;;;;;3.40;1.58;;;;;;;;;;5012061;28;20034;-53
2022/07/10 06:01:28;;;;;;;2.83;1.38;;;;;;;;;;5015815;28;20107;-52
2022/07/10 06:03:54;;;;;;;1.65;1.00;;;;;;;;;;5018472;28;20036;-48
2022/07/10 06:06:20;;;;;;;1.20;0.93;;;;;;;;;;5013477;28;20029;-52
2022/07/10 06:08:46;;;;;;;3.28;1.17;;;;;;;;;;5019629;28;20516;-50
2022/07/10 06:11:12;;;;;;;4.13;1.15;;;;;;;;;;5019119;28;20477;-53
2022/07/10 06:13:38;;;;;;;2.15;1.23;;;;;;;;;;5012402;28;20032;-53
2022/07/10 06:16:05;;;;;;;1.90;1.40;;;;;;;;;;5012577;28;20088;-50
2022/07/10 06:18:31;;;;;;;2.20;1.20;;;;;;;;;;5014631;28;20018;-52
2022/07/10 06:20:57;;;;;;;2.03;1.10;;;;;;;;;;4996622;28;20442;-53
2022/07/10 06:23:23;;;;;;;1.23;1.00;;;;;;;;;;5014124;28;20060;-53
2022/07/10 06:25:49;;;;;;;1.38;0.98;;;;;;;;;;5018567;28;20083;-51
2022/07/10 06:28:16;;;;;;;3.83;1.35;;;;;;;;;;5014286;28;20030;-51
2022/07/10 06:30:42;;;;;;;2.83;1.20;;;;;;;;;;5016594;28;20032;-51
2022/07/10 06:33:08;;;;;;;2.25;1.00;;;;;;;;;;5020105;28;20038;-48
2022/07/10 06:35:34;;;;;;;2.60;1.00;;;;;;;;;;5017532;28;20022;-53
2022/07/10 06:38:01;;;;;;;1.17;1.00;;;;;;;;;;5010267;28;20026;-49
2022/07/10 06:40:29;;;;;;;1.00;0.90;;;;;;;;;;5012542;28;20038;-50
2022/07/10 06:42:55;;;;;;;1.67;1.10;;;;;;;;;;5007778;28;20042;-46
2022/07/10 06:45:21;;;;;;;1.70;1.13;;;;;;;;;;5009219;28;20077;-54
2022/07/10 06:47:56;;;;;;;3.10;1.20;;;;;;;;;;5019513;28;20026;-52
2022/07/10 06:50:22;;;;;;;1.95;1.10;;;;;;;;;;5016259;28;20041;-51
2022/07/10 06:52:49;;;;;;;3.33;0.98;;;;;;;;;;5016046;28;20049;-51
2022/07/10 06:55:15;;;;;;;1.15;1.02;;;;;;;;;;5014932;28;20029;-52
2022/07/10 06:57:41;;;;;;;1.20;1.00;;;;;;;;;;5016800;28;20100;-54
2022/07/10 07:00:09;;;;;;;2.95;1.10;;;;;;;;;;5013663;28;20160;-56
2022/07/10 07:02:35;;;;;;;1.88;0.95;;;;;;;;;;5018242;28;20040;-54
2022/07/10 07:05:01;;;;;;;2.13;0.98;;;;;;;;;;5006289;28;20025;-54
2022/07/10 07:07:27;;;;;;;3.60;1.25;;;;;;;;;;5012790;28;20026;-59
2022/07/10 07:09:53;;;;;;;3.08;0.88;;;;;;;;;;5012069;28;20025;-50
2022/07/10 07:12:19;;;;;;;4.63;1.08;;;;;;;;;;5011704;28;20026;-53
2022/07/10 07:14:45;;;;;;;1.80;0.93;;;;;;;;;;5015253;28;20061;-56
2022/07/10 07:17:14;;;;;;;3.60;1.00;;;;;;;;;;5012233;28;20057;-53
2022/07/10 07:25:10;;;;;;;5.22;1.10;;;;;;;;;;5008575;28;20037;-54
2022/07/10 07:27:37;;;;;;;1.80;0.80;;;;;;;;;;5012288;28;20032;-50
2022/07/10 07:30:04;;;;;;;2.60;0.90;;;;;;;;;;5018123;28;20032;-54
2022/07/10 07:32:30;;;;;;;4.20;1.20;;;;;;;;;;5011931;28;20084;-51
2022/07/10 07:34:57;;;;;;;2.78;1.02;;;;;;;;;;5018446;28;20029;-46
2022/07/10 07:37:23;;;;;;;2.05;0.82;;;;;;;;;;5009423;28;20026;-52
2022/07/10 07:39:49;;;;;;;2.20;0.95;;;;;;;;;;5011798;28;20072;-51
2022/07/10 07:42:15;;;;;;;2.72;0.90;;;;;;;;;;5012024;28;20202;-53
2022/07/10 07:44:41;;;;;;;2.85;1.10;;;;;;;;;;5013237;28;20026;-53
2022/07/10 07:47:07;;;;;;;2.25;0.90;;;;;;;;;;5010983;28;20029;-52
2022/07/10 07:49:33;;;;;;;1.83;0.90;;;;;;;;;;5012067;28;20050;-50
2022/07/10 07:52:00;;;;;;;4.28;1.00;;;;;;;;;;5014222;28;20166;-48
2022/07/10 07:54:26;;;;;;;3.40;0.82;;;;;;;;;;5009856;28;20504;-51
2022/07/10 07:56:52;;;;;;;1.65;0.80;;;;;;;;;;5017308;28;20052;-49
2022/07/10 07:59:18;;;;;;;2.05;0.90;;;;;;;;;;5012900;28;20053;-50
2022/07/10 08:01:44;;;;;;;2.40;0.85;;;;;;;;;;5013428;28;20426;-50
2022/07/10 08:04:10;;;;;;;1.05;0.85;;;;;;;;;;5016207;28;20084;-54
2022/07/10 08:06:37;;;;;;;2.00;0.80;;;;;;;;;;5010633;28;20038;-50
2022/07/10 08:09:03;;;;;;;2.53;0.70;;;;;;;;;;5010461;28;20033;-53
2022/07/10 08:11:29;;;;;;;4.88;1.08;;;;;;;;;;5006917;28;20390;-51
2022/07/10 08:13:55;;;;;;;2.55;0.95;;;;;;;;;;5011925;28;20109;-53
2022/07/10 08:16:21;;;;;;;3.42;1.33;;;;;;;;;;5010442;28;20466;-53
2022/07/10 08:18:47;;;;;;;2.05;0.75;;;;;;;;;;5023008;28;20151;-53
2022/07/10 08:21:13;;;;;;;2.13;0.90;;;;;;;;;;4997101;28;20486;-52
2022/07/10 08:23:39;;;;;;;2.50;0.70;;;;;;;;;;5010513;28;20030;-54
2022/07/10 08:26:05;;;;;;;3.25;1.17;;;;;;;;;;5018392;28;20042;-53
2022/07/10 08:28:31;;;;;;;1.27;0.90;;;;;;;;;;5015384;28;20133;-50
2022/07/10 08:30:57;;;;;;;2.30;0.80;;;;;;;;;;5011614;28;20026;-54
2022/07/10 08:33:23;;;;;;;1.55;0.80;;;;;;;;;;5013979;28;20085;-52
2022/07/10 08:35:49;;;;;;;1.27;0.60;;;;;;;;;;5014356;28;20837;-53
2022/07/10 08:38:15;;;;;;;1.30;0.70;;;;;;;;;;5012940;28;20030;-53
2022/07/10 08:40:42;;;;;;;3.47;1.38;;;;;;;;;;5011224;28;20061;-54
2022/07/10 08:43:08;;;;;;;3.08;1.33;;;;;;;;;;5011570;28;20109;-54
2022/07/10 08:45:34;;;;;;;2.05;0.90;;;;;;;;;;5003803;28;20133;-53
2022/07/10 08:48:05;;;;;;;2.95;0.82;;;;;;;;;;5022114;28;20113;-48
2022/07/10 08:50:33;;;;;;;3.03;0.75;;;;;;;;;;5010778;28;20042;-54
2022/07/10 08:53:08;;;;;;;1.55;0.80;;;;;;;;;;5010243;28;20045;-54
2022/07/10 08:55:35;;;;;;;2.15;0.80;;;;;;;;;;5011216;28;20037;-51
2022/07/10 08:58:04;;;;;;;1.13;0.98;;;;;;;;;;5009483;28;20030;-49
2022/07/10 09:00:30;;;;;;;2.15;0.88;;;;;;;;;;5014301;28;20561;-53
2022/07/10 09:02:56;;;;;;;0.52;0.52;;;;;;;;;;5010408;28;20386;-54
2022/07/10 09:05:23;;;;;;;1.17;0.73;;;;;;;;;;5013938;28;20022;-52
2022/07/10 09:07:50;;;;;;;2.03;0.80;;;;;;;;;;5021174;28;20080;-51
2022/07/10 09:10:16;;;;;;;1.25;0.80;;;;;;;;;;5013553;28;20022;-53
2022/07/10 09:12:53;;;;;;;1.23;0.80;;;;;;;;;;5016611;28;20022;-54
2022/07/10 09:15:19;;;;;;;1.10;0.70;;;;;;;;;;5005966;28;20029;-52
2022/07/10 09:17:52;;;;;;;1.25;0.90;;;;;;;;;;5008154;28;20501;-54
2022/07/10 09:20:31;;;;;;;1.83;0.60;;;;;;;;;;5010227;28;20084;-54
2022/07/10 09:22:58;;;;;;;2.20;0.80;;;;;;;;;;5016239;28;20366;-53
2022/07/10 09:25:34;;;;;;;2.72;0.85;;;;;;;;;;5013383;28;20040;-54
2022/07/10 09:28:05;;;;;;;2.08;1.02;;;;;;;;;;5018904;28;20086;-54
2022/07/10 09:30:38;;;;;;;3.33;0.80;;;;;;;;;;5014005;28;20053;-54
2022/07/10 09:33:25;;;;;;;1.73;0.80;;;;;;;;;;5023549;28;20275;-47
2022/07/10 09:36:07;;;;;;;1.83;0.63;;;;;;;;;;5017135;28;20029;-52
2022/07/10 09:38:54;;;;;;;3.33;0.80;;;;;;;;;;5011205;28;20030;-54
2022/07/10 09:41:30;;;;;;;2.60;0.68;;;;;;;;;;5012710;28;20112;-55
2022/07/10 09:43:58;;;;;;;1.52;0.60;;;;;;;;;;5009344;28;20042;-55
2022/07/10 09:46:34;;;;;;;1.52;0.75;;;;;;;;;;5020786;28;20637;-53
2022/07/10 09:49:10;;;;;;;3.15;0.80;;;;;;;;;;5023027;28;20104;-52
2022/07/10 09:51:40;;;;;;;3.60;0.90;;;;;;;;;;5015226;28;20081;-52
2022/07/10 09:54:07;;;;;;;1.67;0.90;;;;;;;;;;5009371;28;20169;-49
2022/07/10 09:56:40;;;;;;;2.10;1.27;;;;;;;;;;5010966;28;20431;-52
2022/07/10 09:59:08;;;;;;;4.53;0.90;;;;;;;;;;5019512;28;20041;-47
2022/07/10 10:01:35;;;;;;;3.15;1.00;;;;;;;;;;5013684;28;20100;-54
2022/07/10 10:04:03;;;;;;;1.98;0.73;;;;;;;;;;5018452;28;20036;-54
2022/07/10 10:06:30;;;;;;;1.50;0.77;;;;;;;;;;5012950;28;20041;-53
2022/07/10 10:08:59;;;;;;;2.63;0.98;;;;;;;;;;5020331;28;20088;-50
2022/07/10 10:11:28;;;;;;;6.88;1.20;;;;;;;;;;5013047;28;20053;-52
2022/07/10 10:13:54;;;;;;;3.60;0.93;;;;;;;;;;5012310;28;20101;-50
2022/07/10 10:16:20;;;;;;;3.72;0.80;;;;;;;;;;5011037;28;20028;-51
2022/07/10 10:21:34;;;;;;;1.67;0.70;;;;;;;;;;5007883;28;20033;-52
2022/07/10 10:24:01;;;;;;;4.43;1.10;;;;;;;;;;5014298;28;20139;-49
2022/07/10 10:26:27;;;;;;;3.40;1.42;;;;;;;;;;5012820;28;20030;-50
2022/07/10 10:28:53;;;;;;;6.97;1.90;;;;;;;;;;5017576;28;20100;-52
2022/07/10 10:31:21;;;;;;;5.80;1.85;;;;;;;;;;5015309;28;20029;-51
2022/07/10 10:33:48;;;;;;;4.13;1.27;;;;;;;;;;5014356;28;20022;-52
2022/07/10 10:36:17;;;;;;;5.53;1.83;;;;;;;;;;5016834;28;20459;-50
2022/07/10 10:38:46;;;;;;;7.50;1.67;;;;;;;;;;5015406;28;20557;-49
2022/07/10 10:41:51;;;;;;;9.13;1.50;;;;;;;;;;5015775;28;20032;-51
2022/07/10 10:44:17;;;;;;;4.93;1.65;;;;;;;;;;4929400;29;20036;-53
2022/07/10 10:46:53;;;;;;;7.72;2.13;;;;;;;;;;4927187;29;20565;-52
2022/07/10 10:49:20;;;;;;;6.20;1.40;;;;;;;;;;4941294;29;20075;-56
2022/07/10 10:51:58;;;;;;;3.78;1.23;;;;;;;;;;4934542;29;20118;-52
2022/07/10 10:54:24;;;;;;;6.15;2.05;;;;;;;;;;4927617;29;20059;-56
2022/07/10 10:57:09;;;;;;;4.28;1.40;;;;;;;;;;4932676;29;20040;-55
2022/07/10 10:59:45;;;;;;;6.72;1.55;;;;;;;;;;4932518;29;20504;-57
2022/07/10 11:02:34;;;;;;;6.15;1.90;;;;;;;;;;4936265;29;20445;-47
2022/07/10 11:05:18;;;;;;;5.22;1.23;;;;;;;;;;4936660;29;20035;-48
2022/07/10 11:08:00;;;;;;;5.43;1.52;;;;;;;;;;4940860;29;20179;-55
2022/07/10 11:10:27;;;;;;;3.70;1.30;;;;;;;;;;4932260;29;20066;-54
2022/07/10 11:13:00;;;;;;;2.08;1.10;;;;;;;;;;4934637;29;20024;-58
2022/07/10 11:15:29;;;;;;;5.13;1.90;;;;;;;;;;4973300;28;20534;-53
2022/07/10 11:17:56;;;;;;;5.30;1.52;;;;;;;;;;4990795;28;20022;-55
2022/07/10 11:20:22;;;;;;;2.00;0.93;;;;;;;;;;4994328;28;20030;-54
2022/07/10 11:22:57;;;;;;;3.45;0.93;;;;;;;;;;4992376;28;20030;-53
2022/07/10 11:25:41;;;;;;;3.83;1.20;;;;;;;;;;4996914;28;20060;-50
2022/07/10 11:28:11;;;;;;;5.13;1.10;;;;;;;;;;4991882;28;20026;-55
2022/07/10 11:30:51;;;;;;;1.67;1.13;;;;;;;;;;4995920;28;20026;-56
2022/07/10 11:33:20;;;;;;;3.03;1.50;;;;;;;;;;4975462;28;20501;-46
2022/07/10 11:35:46;;;;;;;4.40;1.65;;;;;;;;;;4984654;28;20062;-60
2022/07/10 11:38:12;;;;;;;4.38;0.90;;;;;;;;;;4987969;28;20058;-56
2022/07/10 11:40:38;;;;;;;2.17;0.82;;;;;;;;;;4991764;28;20061;-50
2022/07/10 11:43:07;;;;;;;1.55;0.90;;;;;;;;;;4994140;28;20038;-57
2022/07/10 11:45:37;;;;;;;2.63;0.90;;;;;;;;;;4985227;28;20050;-49
2022/07/10 11:48:04;;;;;;;2.70;0.77;;;;;;;;;;4993396;28;20034;-57
2022/07/10 11:50:37;;;;;;;1.75;0.60;;;;;;;;;;4990046;28;20122;-56
2022/07/10 11:53:03;;;;;;;2.50;0.90;;;;;;;;;;5002756;28;20127;-57
2022/07/10 11:55:31;;;;;;;1.90;0.80;;;;;;;;;;5007854;28;20070;-57
2022/07/10 11:57:57;;;;;;;3.88;0.80;;;;;;;;;;5011147;28;20034;-56
2022/07/10 12:00:27;;;;;;;1.90;1.10;;;;;;;;;;5009784;28;20085;-57
2022/07/10 12:02:54;;;;;;;2.45;0.93;;;;;;;;;;5011172;28;20025;-58
2022/07/10 12:05:34;;;;;;;2.67;0.80;;;;;;;;;;5011695;28;20077;-57
2022/07/10 12:08:00;;;;;;;2.65;0.90;;;;;;;;;;5011223;28;20109;-57
2022/07/10 12:10:27;;;;;;;0.98;0.65;;;;;;;;;;5009211;28;20049;-58
2022/07/10 12:12:53;;;;;;;3.58;1.00;;;;;;;;;;5015646;28;20069;-59
2022/07/10 12:15:42;;;;;;;2.10;0.70;;;;;;;;;;5010649;28;20092;-58
2022/07/10 12:18:10;;;;;;;2.17;0.60;;;;;;;;;;5004757;28;20034;-60
2022/07/10 12:20:36;;;;;;;1.73;0.55;;;;;;;;;;5013077;28;20040;-57
2022/07/10 12:23:03;;;;;;;1.00;0.68;;;;;;;;;;5018009;28;20117;-59
2022/07/10 12:25:29;;;;;;;3.83;0.60;;;;;;;;;;5010079;28;20053;-54
2022/07/10 12:27:56;;;;;;;2.70;0.63;;;;;;;;;;5008978;28;20467;-54
2022/07/10 12:30:23;;;;;;;2.78;0.65;;;;;;;;;;5011652;28;20034;-57
2022/07/10 12:32:49;;;;;;;3.13;0.50;;;;;;;;;;5009870;28;20404;-56
2022/07/10 12:35:15;;;;;;;1.42;0.63;;;;;;;;;;5010937;28;20045;-51
2022/07/10 12:37:50;;;;;;;1.38;0.60;;;;;;;;;;5013101;28;20022;-53
2022/07/10 12:40:35;;;;;;;1.17;0.50;;;;;;;;;;5012226;28;20112;-53
2022/07/10 12:43:02;;;;;;;4.72;1.00;;;;;;;;;;5019991;28;20033;-50
2022/07/10 12:45:28;;;;;;;2.70;0.80;;;;;;;;;;5013037;28;20133;-50
2022/07/10 12:47:54;;;;;;;3.22;0.50;;;;;;;;;;5012492;28;20045;-56
2022/07/10 12:50:20;;;;;;;2.13;0.40;;;;;;;;;;5018057;28;20042;-58
2022/07/10 12:52:46;;;;;;;1.02;0.75;;;;;;;;;;5018471;28;20050;-56
2022/07/10 12:55:18;;;;;;;1.23;0.52;;;;;;;;;;5018380;28;20038;-48
2022/07/10 12:57:51;;;;;;;1.90;0.55;;;;;;;;;;5016276;28;20105;-57
2022/07/10 13:00:21;;;;;;;2.03;0.95;;;;;;;;;;5017316;28;20084;-53
2022/07/10 13:02:50;;;;;;;2.58;0.57;;;;;;;;;;5013114;28;20040;-54
2022/07/10 13:05:25;;;;;;;2.40;1.40;;;;;;;;;;5012530;28;20045;-50
2022/07/10 13:07:51;;;;;;;2.15;0.55;;;;;;;;;;5014763;28;20018;-55
2022/07/10 13:10:17;;;;;;;1.88;0.60;;;;;;;;;;5012917;28;20481;-51
2022/07/10 13:12:43;;;;;;;4.05;0.52;;;;;;;;;;5019092;28;20108;-56
2022/07/10 13:15:09;;;;;;;1.98;0.82;;;;;;;;;;5019325;28;20034;-56
2022/07/10 13:17:43;;;;;;;2.72;1.15;;;;;;;;;;5011986;28;20064;-54
2022/07/10 13:20:09;;;;;;;0.70;0.30;;;;;;;;;;5013444;28;20048;-57
2022/07/10 13:22:35;;;;;;;2.47;0.52;;;;;;;;;;5009997;28;20618;-55
2022/07/10 13:25:02;;;;;;;2.58;0.50;;;;;;;;;;5015095;28;20045;-56
2022/07/10 13:27:28;;;;;;;1.17;0.40;;;;;;;;;;5014092;28;20022;-57
2022/07/10 13:29:54;;;;;;;1.25;0.45;;;;;;;;;;5012932;28;20041;-56
2022/07/10 13:32:20;;;;;;;2.13;0.70;;;;;;;;;;5019772;28;20026;-57
2022/07/10 13:34:46;;;;;;;0.65;0.40;;;;;;;;;;5017772;28;20054;-58
2022/07/10 13:37:13;;;;;;;1.27;0.60;;;;;;;;;;5013245;28;20103;-51
2022/07/10 13:39:39;;;;;;;1.60;0.63;;;;;;;;;;5013148;28;20021;-57
2022/07/10 13:42:05;;;;;;;0.90;0.60;;;;;;;;;;5012448;28;20390;-55
2022/07/10 13:44:31;;;;;;;0.98;0.50;;;;;;;;;;5011085;28;20030;-54
2022/07/10 13:46:58;;;;;;;2.22;0.60;;;;;;;;;;5012922;28;20045;-50
2022/07/10 13:49:25;;;;;;;2.28;0.40;;;;;;;;;;5012123;28;20022;-53
2022/07/10 13:51:51;;;;;;;1.52;0.65;;;;;;;;;;5004770;28;20108;-53
2022/07/10 13:54:16;;;;;;;2.58;0.60;;;;;;;;;;5012870;28;20465;-48
2022/07/10 13:56:43;;;;;;;3.72;0.57;;;;;;;;;;5009663;28;20034;-56
2022/07/10 13:59:10;;;;;;;3.33;0.50;;;;;;;;;;5015131;28;20510;-57
2022/07/10 14:01:36;;;;;;;2.83;0.52;;;;;;;;;;5011575;28;20118;-57
2022/07/10 14:04:02;;;;;;;9.50;0.88;;;;;;;;;;5011578;28;20116;-50
2022/07/10 14:06:28;;;;;;;2.80;0.47;;;;;;;;;;5006625;28;20038;-47
2022/07/10 14:08:54;;;;;;;7.40;1.85;;;;;;;;;;5014659;28;20022;-56
2022/07/10 14:11:20;;;;;;;1.88;0.50;;;;;;;;;;5011651;28;20475;-56
2022/07/10 14:13:46;;;;;;;2.42;0.73;;;;;;;;;;5017494;28;20026;-58
2022/07/10 14:16:12;;;;;;;1.63;0.73;;;;;;;;;;5020007;28;20037;-51
2022/07/10 14:18:39;;;;;;;1.83;0.63;;;;;;;;;;5020661;28;20033;-53
2022/07/10 14:21:08;;;;;;;3.65;0.98;;;;;;;;;;5011532;28;20095;-52
2022/07/10 14:23:34;;;;;;;2.15;0.50;;;;;;;;;;5012975;28;20029;-55
2022/07/10 14:26:00;;;;;;;1.90;0.85;;;;;;;;;;5017059;28;20057;-55
2022/07/10 14:28:26;;;;;;;1.98;0.70;;;;;;;;;;5012985;28;20022;-53
2022/07/10 14:30:52;;;;;;;1.02;0.40;;;;;;;;;;5011588;28;20038;-54
2022/07/10 14:33:18;;;;;;;4.43;0.75;;;;;;;;;;5018868;28;20383;-51
2022/07/10 14:35:44;;;;;;;1.02;0.40;;;;;;;;;;5016003;28;20401;-52
2022/07/10 14:38:10;;;;;;;1.77;0.40;;;;;;;;;;5013019;28;20113;-52
2022/07/10 14:40:36;;;;;;;0.90;0.55;;;;;;;;;;5011238;28;20017;-50
2022/07/10 14:43:02;;;;;;;3.03;0.77;;;;;;;;;;5014837;28;20040;-54
2022/07/10 14:45:28;;;;;;;3.15;0.60;;;;;;;;;;5008701;28;20049;-53
2022/07/10 14:47:55;;;;;;;1.27;0.63;;;;;;;;;;5009957;28;20079;-56
2022/07/10 14:50:21;;;;;;;1.33;0.65;;;;;;;;;;5014787;28;20079;-56
2022/07/10 14:52:47;;;;;;;1.73;1.08;;;;;;;;;;5018763;28;20045;-55
2022/07/10 14:55:13;;;;;;;1.65;0.50;;;;;;;;;;5017809;28;20025;-57